Parker, Arizona
Current Conditions -  °F | °C
As of 6:15 AM on Friday 24 Oct 2014 (Local Time) from KHII Reporting Station
Clear Clear  
Wind Chill: 66°   Ceiling: Unl
Heat Index: 66°   Visibility: 10mi
Dew Point: 39°   Wind: 0mph
Humidity: 37%   Direction: NA
Pressure: 30"   Gusts: NA
Location:  34.15°N, 114.29°W
Report Text: KHII 241315Z AUTO 00000KT 10SM CLR 19/04 A3000 RMK AO2
Loading
Personal Weather Stations






























Interactive Weather Map
Tropical Storm Tracking
New forecast layout! Learn more

10-Day Weather Forecast

Advertisements
Track Severe Weather on mobile